Flight Track Log - Related Links

Times and Time Zones

All times are in EST time to prevent confusion due to time zone crossing. See the FIN666 flight status page for this flight to view local times or setup timezone preferences in your user account.

Time Position Orientation Groundspeed Altitude Reporting Facility
EST Latitude Longitude Course Direction KTS MPH feet Rate Location/Type
Mon 07:49:00 AM 55.8966 13.2332 49° Northeast  Level Estimated
Mon 07:50:00 AM 55.9658 13.3788 50° Northeast  Level Estimated
Mon 07:51:00 AM 56.0358 13.5269 50° Northeast  Level Estimated
Mon 07:52:00 AM 56.1056 13.6755 50° Northeast  Level Estimated
Mon 07:53:00 AM 56.1753 13.8247 50° Northeast  Level Estimated
Mon 07:54:00 AM 56.2447 13.9744 50° Northeast  Level Estimated
Mon 07:55:00 AM 56.3140 14.1247 50° Northeast  Level Estimated
Mon 07:56:00 AM 56.3831 14.2755 50° Northeast  Level Estimated
Mon 07:57:00 AM 56.4520 14.4269 50° Northeast  Level Estimated
Mon 07:58:00 AM 56.5207 14.5788 51° Northeast  Level Estimated
Mon 07:59:00 AM 56.5893 14.7312 51° Northeast  Level Estimated
Mon 08:00:00 AM 56.6576 14.8842 51° Northeast  Level Estimated
Mon 08:01:00 AM 56.7258 15.0378 51° Northeast  Level Estimated
Mon 08:02:00 AM 56.7938 15.1919 51° Northeast  Level Estimated
Mon 08:03:00 AM 56.8615 15.3466 51° Northeast  Level Estimated
Mon 08:04:00 AM 56.9291 15.5018 51° Northeast  Level Estimated
Mon 08:05:00 AM 56.9965 15.6576 52° Northeast  Level Estimated
Mon 08:06:00 AM 57.0637 15.8140 52° Northeast  Level Estimated
Mon 08:07:00 AM 57.1307 15.9709 52° Northeast  Level Estimated
Mon 08:08:00 AM 57.1976 16.1284 52° Northeast  Level Estimated
Mon 08:09:00 AM 57.2642 16.2865 52° Northeast  Level Estimated
Mon 08:10:00 AM 57.3306 16.4451 52° Northeast  Level Estimated
Mon 08:11:00 AM 57.3968 16.6043 52° Northeast  Level Estimated
Mon 08:12:00 AM 57.4647 16.7686 52° Northeast  Level Estimated
Mon 08:13:00 AM 57.5323 16.9334 53° Northeast  Level Estimated
Mon 08:14:00 AM 57.5997 17.0989 53° Northeast  Level Estimated
Mon 08:15:00 AM 57.6669 17.2650 53° Northeast  Level Estimated
Mon 08:16:00 AM 57.7339 17.4317 53° Northeast  Level Estimated
Mon 08:17:00 AM 57.8007 17.5990 53° Northeast  Level Estimated
Mon 08:18:00 AM 57.8672 17.7669 53° Northeast  Level Estimated
Mon 08:19:00 AM 57.9335 17.9355 53° Northeast  Level Estimated
Mon 08:20:00 AM 57.9996 18.1046 54° Northeast  Level Estimated
Mon 08:21:00 AM 58.0655 18.2744 54° Northeast  Level Estimated
Mon 08:22:00 AM 58.1311 18.4449 54° Northeast  Level Estimated
Mon 08:23:00 AM 58.1965 18.6159 54° Northeast  Level Estimated
Mon 08:24:00 AM 58.2636 18.7925 54° Northeast  Level Estimated
Mon 08:25:00 AM 58.3304 18.9698 54° Northeast  Level Estimated
Mon 08:26:00 AM 58.3969 19.1477 54° Northeast  Level Estimated
Mon 08:27:00 AM 58.4632 19.3263 55° Northeast  Level Estimated
Mon 08:28:00 AM 58.5293 19.5056 55° Northeast  Level Estimated
Mon 08:29:00 AM 58.5951 19.6855 55° Northeast  Level Estimated
Mon 08:30:00 AM 58.6606 19.8662 55° Northeast  Level Estimated
Mon 08:31:00 AM 58.7259 20.0475 55° Northeast  Level Estimated
Mon 08:32:00 AM 58.7910 20.2295 55° Northeast  Level Estimated
Mon 08:33:00 AM 58.8558 20.4121 56° Northeast  Level Estimated
Mon 08:34:00 AM 58.9203 20.5955 56° Northeast  Level Estimated
Mon 08:35:00 AM 58.9846 20.7795 56° Northeast  Level Estimated
Mon 08:36:00 AM 59.0486 20.9643 56° Northeast  Level Estimated
Mon 08:37:00 AM 59.1123 21.1497 56° Northeast  Level Estimated
Mon 08:38:00 AM 59.1758 21.3358 56° Northeast  Level Estimated
Mon 08:39:00 AM 59.2390 21.5226 56° Northeast  Level Estimated
Mon 08:40:00 AM 59.3019 21.7101 57° Northeast  Level Estimated
Mon 08:41:00 AM 59.3646 21.8983 57° Northeast  Level Estimated
Mon 08:42:00 AM 59.4270 22.0871 57° Northeast  Level Estimated
Mon 08:43:00 AM 59.4891 22.2767 57° Northeast  Level Estimated
Mon 08:44:00 AM 59.5510 22.4670 57° Northeast  Level Estimated
Mon 08:45:00 AM 59.6125 22.6579 57° Northeast  Level Estimated
Mon 08:46:00 AM 59.6738 22.8496 58° Northeast  Level Estimated
Mon 08:47:00 AM 59.7348 23.0420 58° Northeast  Level Estimated
Mon 08:48:00 AM 59.7956 23.2351 58° Northeast  Level Estimated
Mon 08:49:00 AM 59.8560 23.4288 58° Northeast  Level Estimated
Mon 08:50:00 AM 59.9162 23.6233 58° Northeast  Level Estimated
Mon 08:51:00 AM 59.9761 23.8185 58° Northeast  Level Estimated
Mon 08:52:00 AM 60.0356 24.0144 59° Northeast  Level Estimated
Mon 08:53:00 AM 60.0995 24.2261 59° Northeast  Level Estimated
Mon 08:54:00 AM 60.1630 24.4387 59° Northeast  Level Estimated
Mon 08:55:00 AM 60.2261 24.6521 59° Northeast  Level Estimated
Mon 08:56:00 AM 60.2890 24.8663 59° Northeast  Level Estimated
Mon 08:57:00 AM 60.3172 24.9633 60° Northeast  Level Estimated
Mon 08:58:00 AM 60.3172 24.9633 37° Northeast  Level Estimated
Mon 08:59:00 AM 60.3172 24.9633 37° Northeast  Level Estimated
Mon 09:00:00 AM 60.3172 24.9633 37° Northeast  Level Estimated
Mon 09:01:00 AM 60.3172 24.9633 37° Northeast  Level Estimated
Mon 09:02:00 AM 60.3172 24.9633 37° Northeast  Level Estimated
Mon 09:03:00 AM 60.3172 24.9633 37° Northeast  Level Estimated
Mon 09:04:00 AM 60.3172 24.9633 37° Northeast  Level Estimated
Mon 09:05:00 AM 60.3172 24.9633 37° Northeast  Level Estimated
Mon 09:06:00 AM 60.3172 24.9633 37° Northeast  Level Estimated

Login

Don't have an account? Register now (free) for customized features, flight alerts, and more!